sensor_id;sensor_type;location;lat;lon;timestamp;temperature;humidity
64143;DHT22;50437;51.970;5.904;2023-04-01T00:02:19;9.80;99.90
64143;DHT22;50437;51.970;5.904;2023-04-01T00:04:45;9.80;99.90
64143;DHT22;50437;51.970;5.904;2023-04-01T00:07:11;9.80;99.90
64143;DHT22;50437;51.970;5.904;2023-04-01T00:09:40;9.80;99.90
64143;DHT22;50437;51.970;5.904;2023-04-01T00:12:06;9.80;99.90
64143;DHT22;50437;51.970;5.904;2023-04-01T00:14:32;9.80;99.90
64143;DHT22;50437;51.970;5.904;2023-04-01T00:16:58;9.70;99.90
64143;DHT22;50437;51.970;5.904;2023-04-01T00:19:23;9.80;99.90
64143;DHT22;50437;51.970;5.904;2023-04-01T00:21:50;9.70;99.90
64143;DHT22;50437;51.970;5.904;2023-04-01T00:24:17;9.80;99.90
64143;DHT22;50437;51.970;5.904;2023-04-01T00:26:44;9.80;99.90
64143;DHT22;50437;51.970;5.904;2023-04-01T00:29:11;9.80;99.90
64143;DHT22;50437;51.970;5.904;2023-04-01T00:31:37;9.70;99.90
64143;DHT22;50437;51.970;5.904;2023-04-01T00:34:03;9.80;99.90
64143;DHT22;50437;51.970;5.904;2023-04-01T00:36:29;9.70;99.90
64143;DHT22;50437;51.970;5.904;2023-04-01T00:38:57;9.70;99.90
64143;DHT22;50437;51.970;5.904;2023-04-01T00:41:24;9.70;99.90
64143;DHT22;50437;51.970;5.904;2023-04-01T00:44:11;9.80;99.90
64143;DHT22;50437;51.970;5.904;2023-04-01T00:46:39;9.80;99.90
64143;DHT22;50437;51.970;5.904;2023-04-01T00:49:05;9.70;99.90
64143;DHT22;50437;51.970;5.904;2023-04-01T00:51:31;9.80;99.90
64143;DHT22;50437;51.970;5.904;2023-04-01T00:53:58;9.80;99.90
64143;DHT22;50437;51.970;5.904;2023-04-01T00:56:30;9.80;99.90
64143;DHT22;50437;51.970;5.904;2023-04-01T00:58:59;9.80;99.90
64143;DHT22;50437;51.970;5.904;2023-04-01T01:01:26;9.80;99.90
64143;DHT22;50437;51.970;5.904;2023-04-01T01:03:53;9.80;99.90
64143;DHT22;50437;51.970;5.904;2023-04-01T01:08:55;9.90;99.90
64143;DHT22;50437;51.970;5.904;2023-04-01T01:11:25;9.90;99.90
64143;DHT22;50437;51.970;5.904;2023-04-01T01:13:58;9.90;99.90
64143;DHT22;50437;51.970;5.904;2023-04-01T01:16:30;9.80;99.90
64143;DHT22;50437;51.970;5.904;2023-04-01T01:21:54;9.80;99.90
64143;DHT22;50437;51.970;5.904;2023-04-01T01:27:07;9.90;99.90
64143;DHT22;50437;51.970;5.904;2023-04-01T01:37:00;9.90;99.90
64143;DHT22;50437;51.970;5.904;2023-04-01T01:39:28;9.90;99.90
64143;DHT22;50437;51.970;5.904;2023-04-01T01:41:56;9.90;99.90
64143;DHT22;50437;51.970;5.904;2023-04-01T01:44:23;9.90;99.90
64143;DHT22;50437;51.970;5.904;2023-04-01T01:46:52;9.80;99.90
64143;DHT22;50437;51.970;5.904;2023-04-01T01:49:18;9.80;99.90
64143;DHT22;50437;51.970;5.904;2023-04-01T01:51:45;9.80;99.90
64143;DHT22;50437;51.970;5.904;2023-04-01T01:54:13;9.80;99.90
64143;DHT22;50437;51.970;5.904;2023-04-01T01:56:39;9.80;99.90
64143;DHT22;50437;51.970;5.904;2023-04-01T01:59:08;9.80;99.90
64143;DHT22;50437;51.970;5.904;2023-04-01T02:01:37;9.80;99.90
64143;DHT22;50437;51.970;5.904;2023-04-01T02:04:10;9.70;99.90
64143;DHT22;50437;51.970;5.904;2023-04-01T02:06:37;9.80;99.90
64143;DHT22;50437;51.970;5.904;2023-04-01T02:09:04;9.80;99.90
64143;DHT22;50437;51.970;5.904;2023-04-01T02:11:34;9.80;99.90
64143;DHT22;50437;51.970;5.904;2023-04-01T02:14:18;9.80;99.90
64143;DHT22;50437;51.970;5.904;2023-04-01T02:19:15;9.80;99.90
64143;DHT22;50437;51.970;5.904;2023-04-01T02:21:53;9.70;99.90
64143;DHT22;50437;51.970;5.904;2023-04-01T02:24:21;9.70;99.90
64143;DHT22;50437;51.970;5.904;2023-04-01T02:26:48;9.70;99.90
64143;DHT22;50437;51.970;5.904;2023-04-01T02:29:15;9.70;99.90
64143;DHT22;50437;51.970;5.904;2023-04-01T02:31:43;9.70;99.90
64143;DHT22;50437;51.970;5.904;2023-04-01T02:34:09;9.70;99.90
64143;DHT22;50437;51.970;5.904;2023-04-01T02:36:35;9.60;99.90
64143;DHT22;50437;51.970;5.904;2023-04-01T02:39:02;9.60;99.90
64143;DHT22;50437;51.970;5.904;2023-04-01T02:41:29;9.60;99.90
64143;DHT22;50437;51.970;5.904;2023-04-01T02:43:56;9.60;99.90
64143;DHT22;50437;51.970;5.904;2023-04-01T02:46:24;9.60;99.90
64143;DHT22;50437;51.970;5.904;2023-04-01T02:48:50;9.50;99.90
64143;DHT22;50437;51.970;5.904;2023-04-01T02:51:16;9.60;99.90
64143;DHT22;50437;51.970;5.904;2023-04-01T02:53:42;9.60;99.90
64143;DHT22;50437;51.970;5.904;2023-04-01T02:56:08;9.60;99.90
64143;DHT22;50437;51.970;5.904;2023-04-01T02:58:34;9.50;99.90
64143;DHT22;50437;51.970;5.904;2023-04-01T03:01:00;9.60;99.90
64143;DHT22;50437;51.970;5.904;2023-04-01T03:03:26;9.60;99.90
64143;DHT22;50437;51.970;5.904;2023-04-01T03:05:55;9.60;99.90
64143;DHT22;50437;51.970;5.904;2023-04-01T03:08:24;9.50;99.90
64143;DHT22;50437;51.970;5.904;2023-04-01T03:10:50;9.50;99.90
64143;DHT22;50437;51.970;5.904;2023-04-01T03:13:16;9.50;99.90
64143;DHT22;50437;51.970;5.904;2023-04-01T03:15:42;9.50;99.90
64143;DHT22;50437;51.970;5.904;2023-04-01T03:18:08;9.50;99.90
64143;DHT22;50437;51.970;5.904;2023-04-01T03:20:35;9.50;99.90
64143;DHT22;50437;51.970;5.904;2023-04-01T03:23:00;9.60;99.90
64143;DHT22;50437;51.970;5.904;2023-04-01T03:25:27;9.50;99.90
64143;DHT22;50437;51.970;5.904;2023-04-01T03:27:54;9.50;99.90
64143;DHT22;50437;51.970;5.904;2023-04-01T03:30:21;9.50;99.90
64143;DHT22;50437;51.970;5.904;2023-04-01T03:32:50;9.50;99.90
64143;DHT22;50437;51.970;5.904;2023-04-01T03:35:16;9.50;99.90
64143;DHT22;50437;51.970;5.904;2023-04-01T03:37:42;9.50;99.90
64143;DHT22;50437;51.970;5.904;2023-04-01T03:40:08;9.50;99.90
64143;DHT22;50437;51.970;5.904;2023-04-01T03:42:34;9.50;99.90
64143;DHT22;50437;51.970;5.904;2023-04-01T03:45:01;9.50;99.90
64143;DHT22;50437;51.970;5.904;2023-04-01T03:47:27;9.50;99.90
64143;DHT22;50437;51.970;5.904;2023-04-01T03:49:53;9.50;99.90
64143;DHT22;50437;51.970;5.904;2023-04-01T03:52:19;9.40;99.90
64143;DHT22;50437;51.970;5.904;2023-04-01T03:54:45;9.40;99.90
64143;DHT22;50437;51.970;5.904;2023-04-01T03:57:11;9.50;99.90
64143;DHT22;50437;51.970;5.904;2023-04-01T03:59:37;9.40;99.90
64143;DHT22;50437;51.970;5.904;2023-04-01T04:02:04;9.50;99.90
64143;DHT22;50437;51.970;5.904;2023-04-01T04:04:31;9.40;99.90
64143;DHT22;50437;51.970;5.904;2023-04-01T04:06:58;9.40;99.90
64143;DHT22;50437;51.970;5.904;2023-04-01T04:09:25;9.40;99.90
64143;DHT22;50437;51.970;5.904;2023-04-01T04:11:51;9.40;99.90
64143;DHT22;50437;51.970;5.904;2023-04-01T04:14:17;9.40;99.90
64143;DHT22;50437;51.970;5.904;2023-04-01T04:16:47;9.40;99.90
64143;DHT22;50437;51.970;5.904;2023-04-01T04:19:13;9.40;99.90
64143;DHT22;50437;51.970;5.904;2023-04-01T04:21:39;9.30;99.90
64143;DHT22;50437;51.970;5.904;2023-04-01T04:24:06;9.30;99.90
64143;DHT22;50437;51.970;5.904;2023-04-01T04:26:51;9.30;99.90
64143;DHT22;50437;51.970;5.904;2023-04-01T04:29:17;9.30;99.90
64143;DHT22;50437;51.970;5.904;2023-04-01T04:31:46;9.30;99.90
64143;DHT22;50437;51.970;5.904;2023-04-01T04:34:12;9.30;99.90
64143;DHT22;50437;51.970;5.904;2023-04-01T04:36:38;9.20;99.90
64143;DHT22;50437;51.970;5.904;2023-04-01T04:39:04;9.30;99.90
64143;DHT22;50437;51.970;5.904;2023-04-01T04:41:32;9.30;99.90
64143;DHT22;50437;51.970;5.904;2023-04-01T04:43:58;9.30;99.90
64143;DHT22;50437;51.970;5.904;2023-04-01T04:46:25;9.30;99.90
64143;DHT22;50437;51.970;5.904;2023-04-01T04:48:57;9.20;99.90
64143;DHT22;50437;51.970;5.904;2023-04-01T04:51:23;9.30;99.90
64143;DHT22;50437;51.970;5.904;2023-04-01T04:53:49;9.30;99.90
64143;DHT22;50437;51.970;5.904;2023-04-01T04:56:19;9.30;99.90
64143;DHT22;50437;51.970;5.904;2023-04-01T04:58:52;9.30;99.90
64143;DHT22;50437;51.970;5.904;2023-04-01T05:01:36;9.30;99.90
64143;DHT22;50437;51.970;5.904;2023-04-01T05:04:03;9.30;99.90
64143;DHT22;50437;51.970;5.904;2023-04-01T05:06:28;9.20;99.90
64143;DHT22;50437;51.970;5.904;2023-04-01T05:08:57;9.30;99.90
64143;DHT22;50437;51.970;5.904;2023-04-01T05:11:23;9.30;99.90
64143;DHT22;50437;51.970;5.904;2023-04-01T05:13:51;9.30;99.90
64143;DHT22;50437;51.970;5.904;2023-04-01T05:16:19;9.30;99.90
64143;DHT22;50437;51.970;5.904;2023-04-01T05:18:45;9.30;99.90
64143;DHT22;50437;51.970;5.904;2023-04-01T05:21:15;9.30;99.90
64143;DHT22;50437;51.970;5.904;2023-04-01T05:23:41;9.30;99.90
64143;DHT22;50437;51.970;5.904;2023-04-01T05:26:11;9.30;99.90
64143;DHT22;50437;51.970;5.904;2023-04-01T05:28:37;9.40;99.90
64143;DHT22;50437;51.970;5.904;2023-04-01T05:31:04;9.40;99.90
64143;DHT22;50437;51.970;5.904;2023-04-01T05:33:34;9.40;99.90
64143;DHT22;50437;51.970;5.904;2023-04-01T05:36:08;9.40;99.90
64143;DHT22;50437;51.970;5.904;2023-04-01T05:38:35;9.40;99.90
64143;DHT22;50437;51.970;5.904;2023-04-01T05:41:01;9.40;99.90
64143;DHT22;50437;51.970;5.904;2023-04-01T05:43:28;9.40;99.90
64143;DHT22;50437;51.970;5.904;2023-04-01T05:45:59;9.40;99.90
64143;DHT22;50437;51.970;5.904;2023-04-01T05:48:35;9.50;99.90
64143;DHT22;50437;51.970;5.904;2023-04-01T05:51:02;9.50;99.90
64143;DHT22;50437;51.970;5.904;2023-04-01T05:53:28;9.40;99.90
64143;DHT22;50437;51.970;5.904;2023-04-01T05:55:54;9.40;99.90
64143;DHT22;50437;51.970;5.904;2023-04-01T05:58:20;9.50;99.90
64143;DHT22;50437;51.970;5.904;2023-04-01T06:00:47;9.50;99.90
64143;DHT22;50437;51.970;5.904;2023-04-01T06:03:15;9.40;99.90
64143;DHT22;50437;51.970;5.904;2023-04-01T06:05:42;9.50;99.90
64143;DHT22;50437;51.970;5.904;2023-04-01T06:08:15;9.50;99.90
64143;DHT22;50437;51.970;5.904;2023-04-01T06:13:12;9.50;99.90
64143;DHT22;50437;51.970;5.904;2023-04-01T06:15:50;9.50;99.90
64143;DHT22;50437;51.970;5.904;2023-04-01T06:25:55;9.70;99.90
64143;DHT22;50437;51.970;5.904;2023-04-01T06:39:06;9.90;99.90
64143;DHT22;50437;51.970;5.904;2023-04-01T06:47:42;10.00;99.90
64143;DHT22;50437;51.970;5.904;2023-04-01T06:50:51;10.10;99.90
64143;DHT22;50437;51.970;5.904;2023-04-01T06:56:41;10.00;99.90
64143;DHT22;50437;51.970;5.904;2023-04-01T06:59:15;10.10;99.90
64143;DHT22;50437;51.970;5.904;2023-04-01T07:01:49;10.10;99.90
64143;DHT22;50437;51.970;5.904;2023-04-01T07:06:49;10.10;99.90
64143;DHT22;50437;51.970;5.904;2023-04-01T07:09:18;10.10;99.90
64143;DHT22;50437;51.970;5.904;2023-04-01T07:12:06;10.20;99.90
64143;DHT22;50437;51.970;5.904;2023-04-01T07:14:54;10.10;99.90
64143;DHT22;50437;51.970;5.904;2023-04-01T07:17:23;10.20;99.90
64143;DHT22;50437;51.970;5.904;2023-04-01T07:22:29;10.20;99.90
64143;DHT22;50437;51.970;5.904;2023-04-01T07:27:46;10.20;99.90
64143;DHT22;50437;51.970;5.904;2023-04-01T07:30:16;10.30;99.90
64143;DHT22;50437;51.970;5.904;2023-04-01T07:32:47;10.30;99.90
64143;DHT22;50437;51.970;5.904;2023-04-01T07:35:17;10.30;99.90
64143;DHT22;50437;51.970;5.904;2023-04-01T07:40:26;10.40;99.90
64143;DHT22;50437;51.970;5.904;2023-04-01T07:43:15;10.50;99.90
64143;DHT22;50437;51.970;5.904;2023-04-01T07:54:00;10.50;99.90
64143;DHT22;50437;51.970;5.904;2023-04-01T07:56:37;10.50;99.90
64143;DHT22;50437;51.970;5.904;2023-04-01T07:59:17;10.50;99.90
64143;DHT22;50437;51.970;5.904;2023-04-01T08:07:31;10.50;99.90
64143;DHT22;50437;51.970;5.904;2023-04-01T08:10:23;10.60;99.90
64143;DHT22;50437;51.970;5.904;2023-04-01T08:13:18;10.50;99.90
64143;DHT22;50437;51.970;5.904;2023-04-01T08:16:22;10.60;99.90
64143;DHT22;50437;51.970;5.904;2023-04-01T08:21:41;10.70;99.90
64143;DHT22;50437;51.970;5.904;2023-04-01T08:24:22;10.60;99.90
64143;DHT22;50437;51.970;5.904;2023-04-01T08:26:53;10.70;99.90
64143;DHT22;50437;51.970;5.904;2023-04-01T08:29:22;10.80;99.90
64143;DHT22;50437;51.970;5.904;2023-04-01T08:31:53;10.80;99.90
64143;DHT22;50437;51.970;5.904;2023-04-01T08:34:23;10.80;99.90
64143;DHT22;50437;51.970;5.904;2023-04-01T08:36:50;10.70;99.90
64143;DHT22;50437;51.970;5.904;2023-04-01T08:39:38;10.60;99.90
64143;DHT22;50437;51.970;5.904;2023-04-01T08:53:06;10.70;99.90
64143;DHT22;50437;51.970;5.904;2023-04-01T09:20:14;11.10;99.90
64143;DHT22;50437;51.970;5.904;2023-04-01T09:25:45;11.10;99.90
64143;DHT22;50437;51.970;5.904;2023-04-01T09:41:20;11.30;99.90
64143;DHT22;50437;51.970;5.904;2023-04-01T09:44:09;11.30;99.90
64143;DHT22;50437;51.970;5.904;2023-04-01T09:54:56;11.10;99.90
64143;DHT22;50437;51.970;5.904;2023-04-01T10:05:36;10.90;99.90
64143;DHT22;50437;51.970;5.904;2023-04-01T10:10:57;10.90;99.90
64143;DHT22;50437;51.970;5.904;2023-04-01T10:13:39;10.80;99.90
64143;DHT22;50437;51.970;5.904;2023-04-01T10:26:50;11.00;99.90
64143;DHT22;50437;51.970;5.904;2023-04-01T10:32:24;11.00;99.90
64143;DHT22;50437;51.970;5.904;2023-04-01T10:43:18;11.10;99.90
64143;DHT22;50437;51.970;5.904;2023-04-01T10:51:22;11.20;99.90
64143;DHT22;50437;51.970;5.904;2023-04-01T10:56:55;11.30;99.90
64143;DHT22;50437;51.970;5.904;2023-04-01T11:16:09;11.30;99.90
64143;DHT22;50437;51.970;5.904;2023-04-01T11:24:00;11.90;99.90
64143;DHT22;50437;51.970;5.904;2023-04-01T11:26:33;12.00;99.90
64143;DHT22;50437;51.970;5.904;2023-04-01T11:29:40;12.10;99.90
64143;DHT22;50437;51.970;5.904;2023-04-01T11:35:01;11.50;99.90
64143;DHT22;50437;51.970;5.904;2023-04-01T11:37:33;11.10;99.90
64143;DHT22;50437;51.970;5.904;2023-04-01T11:40:36;11.10;99.90
64143;DHT22;50437;51.970;5.904;2023-04-01T11:43:29;11.10;99.90
64143;DHT22;50437;51.970;5.904;2023-04-01T11:46:30;11.30;99.90
64143;DHT22;50437;51.970;5.904;2023-04-01T11:51:58;11.40;99.90
64143;DHT22;50437;51.970;5.904;2023-04-01T11:54:28;11.30;99.90
64143;DHT22;50437;51.970;5.904;2023-04-01T11:57:04;11.30;99.90
64143;DHT22;50437;51.970;5.904;2023-04-01T12:07:50;11.30;99.90
64143;DHT22;50437;51.970;5.904;2023-04-01T12:15:29;11.00;99.90
64143;DHT22;50437;51.970;5.904;2023-04-01T12:18:09;11.10;99.90
64143;DHT22;50437;51.970;5.904;2023-04-01T12:20:50;11.00;99.90
64143;DHT22;50437;51.970;5.904;2023-04-01T12:28:18;11.00;99.90
64143;DHT22;50437;51.970;5.904;2023-04-01T12:33:42;11.00;99.90
64143;DHT22;50437;51.970;5.904;2023-04-01T12:36:19;11.00;99.90
64143;DHT22;50437;51.970;5.904;2023-04-01T12:41:39;11.00;99.90
64143;DHT22;50437;51.970;5.904;2023-04-01T12:44:23;11.00;99.90
64143;DHT22;50437;51.970;5.904;2023-04-01T12:49:47;11.30;99.90
64143;DHT22;50437;51.970;5.904;2023-04-01T13:20:35;11.80;99.90
64143;DHT22;50437;51.970;5.904;2023-04-01T13:26:06;11.90;99.90
64143;DHT22;50437;51.970;5.904;2023-04-01T13:33:53;12.30;99.90
64143;DHT22;50437;51.970;5.904;2023-04-01T13:39:35;12.30;99.90
64143;DHT22;50437;51.970;5.904;2023-04-01T13:42:23;12.10;99.90
64143;DHT22;50437;51.970;5.904;2023-04-01T13:45:00;12.10;99.90
64143;DHT22;50437;51.970;5.904;2023-04-01T13:47:32;12.10;99.90
64143;DHT22;50437;51.970;5.904;2023-04-01T13:50:30;12.00;99.90
64143;DHT22;50437;51.970;5.904;2023-04-01T14:03:44;11.80;99.90
64143;DHT22;50437;51.970;5.904;2023-04-01T14:08:52;11.90;99.90
64143;DHT22;50437;51.970;5.904;2023-04-01T14:38:14;12.10;99.90
64143;DHT22;50437;51.970;5.904;2023-04-01T14:43:51;12.10;99.90
64143;DHT22;50437;51.970;5.904;2023-04-01T14:49:17;12.00;99.90
64143;DHT22;50437;51.970;5.904;2023-04-01T14:51:47;11.90;99.90
64143;DHT22;50437;51.970;5.904;2023-04-01T14:54:21;12.00;99.90
64143;DHT22;50437;51.970;5.904;2023-04-01T14:57:09;12.00;99.90
64143;DHT22;50437;51.970;5.904;2023-04-01T14:59:39;12.10;99.90
64143;DHT22;50437;51.970;5.904;2023-04-01T15:02:14;12.00;99.90
64143;DHT22;50437;51.970;5.904;2023-04-01T15:04:47;12.10;99.90
64143;DHT22;50437;51.970;5.904;2023-04-01T15:07:20;12.10;99.90
64143;DHT22;50437;51.970;5.904;2023-04-01T15:09:57;12.00;99.90
64143;DHT22;50437;51.970;5.904;2023-04-01T15:17:30;12.00;99.90
64143;DHT22;50437;51.970;5.904;2023-04-01T15:23:00;11.90;99.90
64143;DHT22;50437;51.970;5.904;2023-04-01T15:25:45;11.90;99.90
64143;DHT22;50437;51.970;5.904;2023-04-01T15:28:28;12.00;99.90
64143;DHT22;50437;51.970;5.904;2023-04-01T15:36:32;12.00;99.90
64143;DHT22;50437;51.970;5.904;2023-04-01T15:39:11;11.90;99.90
64143;DHT22;50437;51.970;5.904;2023-04-01T15:47:26;11.40;99.90
64143;DHT22;50437;51.970;5.904;2023-04-01T15:50:12;11.40;99.90
64143;DHT22;50437;51.970;5.904;2023-04-01T15:52:59;11.40;99.90
64143;DHT22;50437;51.970;5.904;2023-04-01T16:03:19;11.30;99.90
64143;DHT22;50437;51.970;5.904;2023-04-01T16:13:33;11.40;99.90
64143;DHT22;50437;51.970;5.904;2023-04-01T16:23:56;11.30;99.90
64143;DHT22;50437;51.970;5.904;2023-04-01T16:31:38;11.40;99.90
64143;DHT22;50437;51.970;5.904;2023-04-01T16:42:11;11.30;99.90
64143;DHT22;50437;51.970;5.904;2023-04-01T16:45:01;11.30;99.90
64143;DHT22;50437;51.970;5.904;2023-04-01T16:47:45;11.30;99.90
64143;DHT22;50437;51.970;5.904;2023-04-01T16:50:22;11.10;99.90
64143;DHT22;50437;51.970;5.904;2023-04-01T16:55:34;10.90;99.90
64143;DHT22;50437;51.970;5.904;2023-04-01T16:58:00;10.90;99.90
64143;DHT22;50437;51.970;5.904;2023-04-01T17:03:12;10.80;99.90
64143;DHT22;50437;51.970;5.904;2023-04-01T17:11:32;10.60;99.90
64143;DHT22;50437;51.970;5.904;2023-04-01T17:19:27;10.40;99.90
64143;DHT22;50437;51.970;5.904;2023-04-01T17:22:15;10.40;99.90
64143;DHT22;50437;51.970;5.904;2023-04-01T17:24:57;10.30;99.90
64143;DHT22;50437;51.970;5.904;2023-04-01T17:27:45;10.20;99.90
64143;DHT22;50437;51.970;5.904;2023-04-01T17:36:04;10.10;99.90
64143;DHT22;50437;51.970;5.904;2023-04-01T17:38:54;10.10;99.90
64143;DHT22;50437;51.970;5.904;2023-04-01T17:41:34;10.00;99.90
64143;DHT22;50437;51.970;5.904;2023-04-01T17:44:49;10.00;99.90
64143;DHT22;50437;51.970;5.904;2023-04-01T17:56:58;9.80;99.90
64143;DHT22;50437;51.970;5.904;2023-04-01T17:59:35;9.90;99.90
64143;DHT22;50437;51.970;5.904;2023-04-01T18:02:07;9.90;99.90
64143;DHT22;50437;51.970;5.904;2023-04-01T18:10:20;9.70;99.90
64143;DHT22;50437;51.970;5.904;2023-04-01T18:21:53;9.50;99.90
64143;DHT22;50437;51.970;5.904;2023-04-01T18:27:15;9.40;99.90
64143;DHT22;50437;51.970;5.904;2023-04-01T18:32:17;9.40;99.90
64143;DHT22;50437;51.970;5.904;2023-04-01T18:37:42;9.40;99.90
64143;DHT22;50437;51.970;5.904;2023-04-01T18:40:16;9.40;99.90
64143;DHT22;50437;51.970;5.904;2023-04-01T18:45:40;9.20;99.90
64143;DHT22;50437;51.970;5.904;2023-04-01T18:48:14;9.20;99.90
64143;DHT22;50437;51.970;5.904;2023-04-01T18:55:56;9.20;99.90
64143;DHT22;50437;51.970;5.904;2023-04-01T19:06:49;9.20;99.90
64143;DHT22;50437;51.970;5.904;2023-04-01T19:09:42;9.20;99.90
64143;DHT22;50437;51.970;5.904;2023-04-01T19:12:39;9.10;99.90
64143;DHT22;50437;51.970;5.904;2023-04-01T19:20:25;8.90;99.90
64143;DHT22;50437;51.970;5.904;2023-04-01T19:23:15;9.00;99.90
64143;DHT22;50437;51.970;5.904;2023-04-01T19:25:51;9.00;99.90
64143;DHT22;50437;51.970;5.904;2023-04-01T19:33:45;9.00;99.90
64143;DHT22;50437;51.970;5.904;2023-04-01T19:36:36;8.90;99.90
64143;DHT22;50437;51.970;5.904;2023-04-01T19:49:50;8.70;99.90
64143;DHT22;50437;51.970;5.904;2023-04-01T19:55:01;8.60;99.90
64143;DHT22;50437;51.970;5.904;2023-04-01T20:00:02;8.60;99.90
64143;DHT22;50437;51.970;5.904;2023-04-01T20:02:39;8.60;99.90
64143;DHT22;50437;51.970;5.904;2023-04-01T20:08:20;8.50;99.90
64143;DHT22;50437;51.970;5.904;2023-04-01T20:16:49;8.40;99.90
64143;DHT22;50437;51.970;5.904;2023-04-01T20:22:37;8.30;99.90
64143;DHT22;50437;51.970;5.904;2023-04-01T20:25:18;8.30;99.90
64143;DHT22;50437;51.970;5.904;2023-04-01T20:27:48;8.20;99.90
64143;DHT22;50437;51.970;5.904;2023-04-01T20:38:12;8.10;99.90
64143;DHT22;50437;51.970;5.904;2023-04-01T20:40:58;8.20;99.90
64143;DHT22;50437;51.970;5.904;2023-04-01T20:49:02;8.10;99.90
64143;DHT22;50437;51.970;5.904;2023-04-01T20:51:41;8.00;99.90
64143;DHT22;50437;51.970;5.904;2023-04-01T20:59:35;7.80;99.90
64143;DHT22;50437;51.970;5.904;2023-04-01T21:02:26;7.80;99.90
64143;DHT22;50437;51.970;5.904;2023-04-01T21:05:20;7.80;99.90
64143;DHT22;50437;51.970;5.904;2023-04-01T21:07:55;7.80;99.90
64143;DHT22;50437;51.970;5.904;2023-04-01T21:10:41;7.80;99.90
64143;DHT22;50437;51.970;5.904;2023-04-01T21:13:21;7.80;99.90
64143;DHT22;50437;51.970;5.904;2023-04-01T21:21:12;7.70;99.90
64143;DHT22;50437;51.970;5.904;2023-04-01T21:28:57;7.70;99.90
64143;DHT22;50437;51.970;5.904;2023-04-01T21:31:54;7.60;99.90
64143;DHT22;50437;51.970;5.904;2023-04-01T21:34:31;7.60;99.90
64143;DHT22;50437;51.970;5.904;2023-04-01T21:37:22;7.60;99.90
64143;DHT22;50437;51.970;5.904;2023-04-01T21:40:09;7.60;99.90
64143;DHT22;50437;51.970;5.904;2023-04-01T21:42:52;7.50;99.90
64143;DHT22;50437;51.970;5.904;2023-04-01T21:51:01;7.50;99.90
64143;DHT22;50437;51.970;5.904;2023-04-01T22:07:18;7.50;99.90
64143;DHT22;50437;51.970;5.904;2023-04-01T22:12:31;7.40;99.90
64143;DHT22;50437;51.970;5.904;2023-04-01T22:15:02;7.40;99.90
64143;DHT22;50437;51.970;5.904;2023-04-01T22:25:51;7.30;99.90
64143;DHT22;50437;51.970;5.904;2023-04-01T22:28:21;7.30;99.90
64143;DHT22;50437;51.970;5.904;2023-04-01T22:30:52;7.30;99.90
64143;DHT22;50437;51.970;5.904;2023-04-01T22:43:49;7.10;99.90
64143;DHT22;50437;51.970;5.904;2023-04-01T22:46:32;7.10;99.90
64143;DHT22;50437;51.970;5.904;2023-04-01T22:51:39;7.00;99.90
64143;DHT22;50437;51.970;5.904;2023-04-01T22:54:29;7.00;99.90
64143;DHT22;50437;51.970;5.904;2023-04-01T22:56:59;7.10;99.90
64143;DHT22;50437;51.970;5.904;2023-04-01T22:59:31;7.00;99.90
64143;DHT22;50437;51.970;5.904;2023-04-01T23:02:00;7.10;99.90
64143;DHT22;50437;51.970;5.904;2023-04-01T23:04:31;7.00;99.90
64143;DHT22;50437;51.970;5.904;2023-04-01T23:06:58;6.90;99.90
64143;DHT22;50437;51.970;5.904;2023-04-01T23:09:29;7.00;99.90
64143;DHT22;50437;51.970;5.904;2023-04-01T23:12:04;7.00;99.90
64143;DHT22;50437;51.970;5.904;2023-04-01T23:14:35;7.00;99.90
64143;DHT22;50437;51.970;5.904;2023-04-01T23:20:01;7.10;99.90
64143;DHT22;50437;51.970;5.904;2023-04-01T23:22:37;7.10;99.90
64143;DHT22;50437;51.970;5.904;2023-04-01T23:27:33;7.10;99.90
64143;DHT22;50437;51.970;5.904;2023-04-01T23:30:01;7.00;99.90
64143;DHT22;50437;51.970;5.904;2023-04-01T23:32:29;7.00;99.90
64143;DHT22;50437;51.970;5.904;2023-04-01T23:34:55;6.90;99.90
64143;DHT22;50437;51.970;5.904;2023-04-01T23:37:22;6.90;99.90
64143;DHT22;50437;51.970;5.904;2023-04-01T23:39:50;6.80;99.90
64143;DHT22;50437;51.970;5.904;2023-04-01T23:44:42;6.80;99.90
64143;DHT22;50437;51.970;5.904;2023-04-01T23:47:12;6.80;99.90
64143;DHT22;50437;51.970;5.904;2023-04-01T23:49:40;6.90;99.90
64143;DHT22;50437;51.970;5.904;2023-04-01T23:52:14;6.80;99.90
64143;DHT22;50437;51.970;5.904;2023-04-01T23:54:44;6.70;99.90
64143;DHT22;50437;51.970;5.904;2023-04-01T23:57:15;6.70;99.90
64143;DHT22;50437;51.970;5.904;2023-04-01T23:59:41;6.80;99.90
